Overseas Luzon — V7NE5 — position and weather

sailwx.info

Track history (hours):
 
Tides and Currents Weather Stations Pressure Air Temp Water Temp Dewpoint Dewpoint Depression Visibility Wind Speed Wind Dir Waves Ship Positions

Overseas Luzon

Last reported at 2015-Jan-25 03:33 UTC. Time now 2015-Feb-01 22:44 UTC.
Position N 32°08' W 117°39'.

Length 228 m; draft 8.2 m.

Type: Tanker. MMSI: 538002946.

Date/timePositionNaut miles runAvg speedWind from/ knotsBaromVisibWave heightAir tempDewpointWater temp
2015-Jan-25 03:33N 32°08' W 117°39'1414.3
2015-Jan-25 02:33N 32°21' W 117°45'1212.0
2015-Jan-25 01:33N 32°33' W 117°48'1313.2
2015-Jan-25 00:33N 32°46' W 117°48'1313.3
2015-Jan-24 23:33N 32°59' W 117°51'1212.5
2015-Jan-24 22:33N 33°10' W 117°60'1111.4
2015-Jan-24 21:33N 33°20' W 118°07'2310.5
2015-Jan-24 19:22N 33°42' W 118°11'2 1.1
2015-Jan-24 17:16N 33°44' W 118°13'0 0.1
2015-Jan-24 16:22N 33°44' W 118°13'0 0.1
2015-Jan-24 15:22N 33°44' W 118°13'0 0.1
2015-Jan-24 14:31N 33°44' W 118°13'0 0.1
2015-Jan-24 13:28N 33°44' W 118°13'0 0.0
2015-Jan-24 10:16N 33°44' W 118°13'0 0.0
2015-Jan-24 09:28N 33°44' W 118°13'0 0.1
2015-Jan-24 08:28N 33°44' W 118°13'0 0.1
2015-Jan-24 07:33N 33°44' W 118°13'0 0.1
2015-Jan-24 06:33N 33°44' W 118°13'0 0.1
2015-Jan-24 05:33N 33°44' W 118°13'0 0.0
2015-Jan-24 04:33N 33°44' W 118°13'0 0.2
2015-Jan-24 03:33N 33°44' W 118°13'0 0.0
2015-Jan-24 02:34N 33°44' W 118°13'0 0.0
2015-Jan-24 01:32N 33°44' W 118°13'0 0.1
2015-Jan-24 00:33N 33°44' W 118°13'1 0.1
2015-Jan-23 14:28N 33°45' W 118°13'0 0.0
2015-Jan-22 21:31N 33°45' W 118°13'0 0.0
2015-Jan-22 20:33N 33°45' W 118°13'0 0.0
2015-Jan-22 19:31N 33°45' W 118°13'0 0.0
2015-Jan-22 18:33N 33°45' W 118°13'0 0.0
2015-Jan-22 17:33N 33°45' W 118°13'0 0.0
2015-Jan-22 16:33N 33°45' W 118°13'0 0.0
2015-Jan-22 15:33N 33°45' W 118°13'0 0.2
2015-Jan-22 14:33N 33°45' W 118°13'5 4.8
2015-Jan-22 13:33N 33°41' W 118°10'3 2.7
2015-Jan-22 12:31N 33°41' W 118°06'0 0.0
2015-Jan-22 11:33N 33°41' W 118°06'0 0.1
2015-Jan-22 10:33N 33°41' W 118°07'0 0.1
2015-Jan-22 09:33N 33°41' W 118°07'3 2.6
2015-Jan-22 08:33N 33°38' W 118°07'4 4.2
2015-Jan-22 07:33N 33°34' W 118°09'5 4.9
2015-Jan-22 06:33N 33°30' W 118°07'7 7.0
2015-Jan-22 05:33N 33°23' W 118°04'6 6.4
2015-Jan-22 04:33N 33°17' W 118°02'1010.4
2015-Jan-22 03:34N 33°08' W 117°57'1010.4
2015-Jan-22 02:33N 32°58' W 117°52'10 9.9
2015-Jan-22 01:33N 32°48' W 117°50'1010.4
2015-Jan-22 00:33N 32°38' W 117°50'1110.4
2015-Jan-21 23:30N 32°27' W 117°50'4 6.6
2015-Jan-21 22:50N 32°22' W 117°50'0 7.3
2015-Jan-21 22:46N 32°22' W 117°50'2 9.6
2015-Jan-21 22:33N 32°20' W 117°49'1110.8
2015-Jan-21 21:33N 32°11' W 117°42'1 0.3
2015-Jan-21 17:19N 32°11' W 117°41'1 0.7
2015-Jan-21 16:30N 32°11' W 117°41'1 0.8
2015-Jan-21 15:33N 32°11' W 117°42'1 0.7
2015-Jan-21 13:31N 32°13' W 117°43'1 0.7
2015-Jan-21 12:20N 32°13' W 117°43'1 0.8
2015-Jan-21 11:27N 32°14' W 117°43'1 1.0
2015-Jan-21 10:33N 32°15' W 117°44'1 0.8
2015-Jan-21 09:33N 32°16' W 117°44'8 7.6
2015-Jan-21 08:33N 32°08' W 117°41'4212.5
2015-Jan-21 05:11N 31°29' W 117°23'912.2
2015-Jan-21 04:26N 31°20' W 117°21'15012.4
2015-Jan-20 16:17N 28°57' W 116°30'912.6
2015-Jan-20 15:33N 28°48' W 116°27'1312.8
2015-Jan-20 14:31N 28°35' W 116°22'1512.6
2015-Jan-20 13:20N 28°21' W 116°17'10912.3
2015-Jan-20 04:29N 26°47' W 115°14'  
Track history (hours):
 
Tides and Currents Weather Stations Pressure Air Temp Water Temp Dewpoint Dewpoint Depression Visibility Wind Speed Wind Dir Waves Ship Positions

Overseas Luzon

Last reported at 2015-Jan-25 03:33 UTC. Time now 2015-Feb-01 22:44 UTC.
Position N 32°08' W 117°39'.

Length 228 m; draft 8.2 m.

Type: Tanker. MMSI: 538002946.

Date/timePositionNaut miles runAvg speedWind from/ knotsBaromVisibWave heightAir tempDewpointWater temp
2015-Jan-25 03:33N 32°08' W 117°39'1414.3
2015-Jan-25 02:33N 32°21' W 117°45'1212.0
2015-Jan-25 01:33N 32°33' W 117°48'1313.2
2015-Jan-25 00:33N 32°46' W 117°48'1313.3
2015-Jan-24 23:33N 32°59' W 117°51'1212.5
2015-Jan-24 22:33N 33°10' W 117°60'1111.4
2015-Jan-24 21:33N 33°20' W 118°07'2310.5
2015-Jan-24 19:22N 33°42' W 118°11'2 1.1
2015-Jan-24 17:16N 33°44' W 118°13'0 0.1
2015-Jan-24 16:22N 33°44' W 118°13'0 0.1
2015-Jan-24 15:22N 33°44' W 118°13'0 0.1
2015-Jan-24 14:31N 33°44' W 118°13'0 0.1
2015-Jan-24 13:28N 33°44' W 118°13'0 0.0
2015-Jan-24 10:16N 33°44' W 118°13'0 0.0
2015-Jan-24 09:28N 33°44' W 118°13'0 0.1
2015-Jan-24 08:28N 33°44' W 118°13'0 0.1
2015-Jan-24 07:33N 33°44' W 118°13'0 0.1
2015-Jan-24 06:33N 33°44' W 118°13'0 0.1
2015-Jan-24 05:33N 33°44' W 118°13'0 0.0
2015-Jan-24 04:33N 33°44' W 118°13'0 0.2
2015-Jan-24 03:33N 33°44' W 118°13'0 0.0
2015-Jan-24 02:34N 33°44' W 118°13'0 0.0
2015-Jan-24 01:32N 33°44' W 118°13'0 0.1
2015-Jan-24 00:33N 33°44' W 118°13'1 0.1
2015-Jan-23 14:28N 33°45' W 118°13'0 0.0
2015-Jan-22 21:31N 33°45' W 118°13'0 0.0
2015-Jan-22 20:33N 33°45' W 118°13'0 0.0
2015-Jan-22 19:31N 33°45' W 118°13'0 0.0
2015-Jan-22 18:33N 33°45' W 118°13'0 0.0
2015-Jan-22 17:33N 33°45' W 118°13'0 0.0
2015-Jan-22 16:33N 33°45' W 118°13'0 0.0
2015-Jan-22 15:33N 33°45' W 118°13'0 0.2
2015-Jan-22 14:33N 33°45' W 118°13'5 4.8
2015-Jan-22 13:33N 33°41' W 118°10'3 2.7
2015-Jan-22 12:31N 33°41' W 118°06'0 0.0
2015-Jan-22 11:33N 33°41' W 118°06'0 0.1
2015-Jan-22 10:33N 33°41' W 118°07'0 0.1
2015-Jan-22 09:33N 33°41' W 118°07'3 2.6
2015-Jan-22 08:33N 33°38' W 118°07'4 4.2
2015-Jan-22 07:33N 33°34' W 118°09'5 4.9
2015-Jan-22 06:33N 33°30' W 118°07'7 7.0
2015-Jan-22 05:33N 33°23' W 118°04'6 6.4
2015-Jan-22 04:33N 33°17' W 118°02'1010.4
2015-Jan-22 03:34N 33°08' W 117°57'1010.4
2015-Jan-22 02:33N 32°58' W 117°52'10 9.9
2015-Jan-22 01:33N 32°48' W 117°50'1010.4
2015-Jan-22 00:33N 32°38' W 117°50'1110.4
2015-Jan-21 23:30N 32°27' W 117°50'4 6.6
2015-Jan-21 22:50N 32°22' W 117°50'0 7.3
2015-Jan-21 22:46N 32°22' W 117°50'2 9.6
2015-Jan-21 22:33N 32°20' W 117°49'1110.8
2015-Jan-21 21:33N 32°11' W 117°42'1 0.3
2015-Jan-21 17:19N 32°11' W 117°41'1 0.7
2015-Jan-21 16:30N 32°11' W 117°41'1 0.8
2015-Jan-21 15:33N 32°11' W 117°42'1 0.7
2015-Jan-21 13:31N 32°13' W 117°43'1 0.7
2015-Jan-21 12:20N 32°13' W 117°43'1 0.8
2015-Jan-21 11:27N 32°14' W 117°43'1 1.0
2015-Jan-21 10:33N 32°15' W 117°44'1 0.8
2015-Jan-21 09:33N 32°16' W 117°44'8 7.6
2015-Jan-21 08:33N 32°08' W 117°41'4212.5
2015-Jan-21 05:11N 31°29' W 117°23'912.2
2015-Jan-21 04:26N 31°20' W 117°21'15012.4
2015-Jan-20 16:17N 28°57' W 116°30'912.6
2015-Jan-20 15:33N 28°48' W 116°27'1312.8
2015-Jan-20 14:31N 28°35' W 116°22'1512.6
2015-Jan-20 13:20N 28°21' W 116°17'10912.3
2015-Jan-20 04:29N 26°47' W 115°14'  

Dump ship's entire track history